Ray City, Georgia
Current Conditions -  °F | °C
As of 1:58 PM on Thursday 30 Oct 2014 (Local Time) from KVAD Reporting Station
Overcast Overcast  
Wind Chill: 65°   Ceiling: 6000
Heat Index: 65°   Visibility: 10mi
Dew Point: 51°   Wind: 6mph
Humidity: 60%   Direction: 280°W
Pressure: 29.98"   Gusts: NA
Location:  31.07°N, 83.2°W
Report Text: KVAD 301758Z AUTO 28005KT 10SM BKN060 BKN080 OVC090 19/11 A2998 RMK AO2 RAB1706E1725 SLP153 P0006 60006 T01860108 10209 20158 58015 $
Loading
Personal Weather Stations






























Interactive Weather Map New forecast layout! Learn more

10-Day Weather Forecast

Advertisements
Track Severe Weather on mobile